Time;durP1;ratioP1;P1;durP2;ratioP2;P2;SDS_P1;SDS_P2;PMS_P1;PMS_P2;Temp;Humidity;BMP_temperature;BMP_pressure;BME280_temperature;BME280_humidity;BME280_pressure;Samples;Min_cycle;Max_cycle;Signal;HPM_P1;HPM_P2
2022/10/13 00:00:28;;;;;;;41.27;24.27;;;;;;;;;;5111945;28;20204;-67
2022/10/13 00:02:54;;;;;;;39.03;23.10;;;;;;;;;;5110854;28;20191;-67
2022/10/13 00:05:21;;;;;;;42.93;23.97;;;;;;;;;;5092005;28;20220;-67
2022/10/13 00:07:48;;;;;;;38.27;23.47;;;;;;;;;;5110447;28;20706;-67
2022/10/13 00:10:14;;;;;;;43.37;23.50;;;;;;;;;;5110520;28;20598;-67
2022/10/13 00:12:41;;;;;;;50.13;25.20;;;;;;;;;;5109849;28;20242;-67
2022/10/13 00:15:10;;;;;;;39.10;23.53;;;;;;;;;;5110760;28;20192;-67
2022/10/13 00:17:36;;;;;;;41.93;23.90;;;;;;;;;;5109508;28;20271;-67
2022/10/13 00:20:04;;;;;;;40.70;22.87;;;;;;;;;;5109876;28;20297;-67
2022/10/13 00:22:30;;;;;;;43.60;25.03;;;;;;;;;;5111381;28;20208;-67
2022/10/13 00:24:57;;;;;;;42.93;23.67;;;;;;;;;;5111422;28;20259;-67
2022/10/13 00:27:23;;;;;;;38.60;22.27;;;;;;;;;;5107476;28;20592;-67
2022/10/13 00:29:50;;;;;;;38.77;22.37;;;;;;;;;;5097393;28;20190;-67
2022/10/13 00:32:16;;;;;;;39.30;24.57;;;;;;;;;;5108807;28;20279;-67
2022/10/13 00:34:43;;;;;;;42.33;22.90;;;;;;;;;;5110876;28;20199;-67
2022/10/13 00:37:10;;;;;;;38.17;22.60;;;;;;;;;;5109564;28;20220;-67
2022/10/13 00:39:36;;;;;;;43.23;22.87;;;;;;;;;;5110027;28;20559;-67
2022/10/13 00:42:03;;;;;;;39.87;23.93;;;;;;;;;;5109996;28;20197;-67
2022/10/13 00:44:49;;;;;;;40.07;24.13;;;;;;;;;;5108881;28;20272;-67
2022/10/13 00:47:15;;;;;;;41.53;22.43;;;;;;;;;;5108070;28;20292;-67
2022/10/13 00:49:44;;;;;;;39.50;22.40;;;;;;;;;;5110507;28;20297;-67
2022/10/13 00:52:11;;;;;;;41.20;23.03;;;;;;;;;;5109749;28;20209;-67
2022/10/13 00:54:38;;;;;;;39.77;22.00;;;;;;;;;;5110004;28;20622;-67
2022/10/13 00:57:04;;;;;;;39.40;22.47;;;;;;;;;;5109942;28;20189;-67
2022/10/13 00:59:31;;;;;;;36.37;23.40;;;;;;;;;;5109548;28;20279;-67
2022/10/13 01:01:58;;;;;;;38.20;23.20;;;;;;;;;;5090236;28;20277;-67
2022/10/13 01:04:25;;;;;;;36.90;21.97;;;;;;;;;;5109341;28;20276;-67
2022/10/13 01:06:51;;;;;;;35.27;22.00;;;;;;;;;;5108917;28;20712;-67
2022/10/13 01:09:18;;;;;;;42.93;23.07;;;;;;;;;;5109906;28;20270;-67
2022/10/13 01:11:47;;;;;;;37.37;23.20;;;;;;;;;;5110368;28;20572;-67
2022/10/13 01:14:19;;;;;;;39.33;22.40;;;;;;;;;;5108522;28;20196;-67
2022/10/13 01:16:46;;;;;;;39.00;22.90;;;;;;;;;;5109180;28;20192;-67
2022/10/13 01:19:25;;;;;;;40.87;23.53;;;;;;;;;;5109115;28;20184;-67
2022/10/13 01:22:03;;;;;;;39.20;23.67;;;;;;;;;;5091908;28;20663;-67
2022/10/13 01:24:41;;;;;;;37.23;23.33;;;;;;;;;;5110259;28;20567;-67
2022/10/13 01:27:14;;;;;;;40.23;22.43;;;;;;;;;;5108004;28;20552;-67
2022/10/13 01:29:46;;;;;;;41.60;22.80;;;;;;;;;;5110356;28;20216;-67
2022/10/13 01:32:22;;;;;;;48.53;26.03;;;;;;;;;;5109074;28;20192;-67
2022/10/13 01:34:52;;;;;;;37.17;22.63;;;;;;;;;;5110028;28;20597;-67
2022/10/13 01:37:24;;;;;;;37.87;23.27;;;;;;;;;;5108534;28;20618;-67
2022/10/13 01:39:53;;;;;;;37.80;22.00;;;;;;;;;;5090981;28;20227;-67
2022/10/13 01:42:23;;;;;;;37.80;23.20;;;;;;;;;;5091561;28;20193;-67
2022/10/13 01:44:50;;;;;;;40.07;22.63;;;;;;;;;;5090460;28;20289;-67
2022/10/13 01:47:17;;;;;;;44.77;24.17;;;;;;;;;;5108302;28;20683;-67
2022/10/13 01:49:44;;;;;;;40.43;22.77;;;;;;;;;;5108948;28;20196;-67
2022/10/13 01:52:14;;;;;;;41.43;22.53;;;;;;;;;;5090578;28;20189;-67
2022/10/13 01:54:41;;;;;;;35.70;21.17;;;;;;;;;;5090974;28;20678;-67
2022/10/13 01:57:26;;;;;;;41.70;23.00;;;;;;;;;;5108875;28;20195;-67
2022/10/13 01:59:52;;;;;;;36.60;21.90;;;;;;;;;;5090631;28;20208;-67
2022/10/13 02:02:21;;;;;;;42.33;23.77;;;;;;;;;;5108955;28;20584;-67
2022/10/13 02:04:48;;;;;;;42.30;23.87;;;;;;;;;;5109559;28;20209;-67
2022/10/13 02:07:33;;;;;;;47.47;25.90;;;;;;;;;;5090187;28;20216;-67
2022/10/13 02:10:00;;;;;;;40.13;21.97;;;;;;;;;;5109714;28;20241;-67
2022/10/13 02:12:33;;;;;;;43.90;23.67;;;;;;;;;;5108888;28;20188;-67
2022/10/13 02:15:00;;;;;;;52.07;27.57;;;;;;;;;;5093419;28;20185;-68
2022/10/13 02:17:27;;;;;;;47.07;26.17;;;;;;;;;;5113279;28;20234;-67
2022/10/13 02:19:54;;;;;;;47.60;23.80;;;;;;;;;;5113583;28;20214;-67
2022/10/13 02:22:21;;;;;;;40.93;22.13;;;;;;;;;;5112557;28;20267;-67
2022/10/13 02:24:48;;;;;;;39.10;22.53;;;;;;;;;;5094054;28;20188;-68
2022/10/13 02:27:16;;;;;;;45.53;24.50;;;;;;;;;;5085561;28;20244;-67
2022/10/13 02:29:53;;;;;;;49.43;26.10;;;;;;;;;;5093752;28;20603;-67
2022/10/13 02:32:22;;;;;;;72.83;35.43;;;;;;;;;;5109446;28;20947;-67
2022/10/13 02:34:51;;;;;;;61.57;31.13;;;;;;;;;;5113532;28;20219;-67
2022/10/13 02:37:18;;;;;;;57.77;32.47;;;;;;;;;;5111969;28;20216;-67
2022/10/13 02:39:44;;;;;;;61.37;34.30;;;;;;;;;;5112417;28;20745;-67
2022/10/13 02:42:12;;;;;;;42.57;23.13;;;;;;;;;;5109102;28;20245;-67
2022/10/13 02:44:39;;;;;;;53.07;29.43;;;;;;;;;;5112077;28;20268;-67
2022/10/13 02:47:05;;;;;;;43.87;25.30;;;;;;;;;;5111882;28;20972;-67
2022/10/13 02:49:32;;;;;;;39.87;23.00;;;;;;;;;;5103887;28;20682;-67
2022/10/13 02:51:58;;;;;;;41.40;24.00;;;;;;;;;;5108884;28;20200;-67
2022/10/13 02:54:25;;;;;;;39.57;21.87;;;;;;;;;;5113121;28;20195;-67
2022/10/13 02:56:51;;;;;;;44.30;25.13;;;;;;;;;;5110779;28;20219;-67
2022/10/13 02:59:18;;;;;;;46.87;24.40;;;;;;;;;;5093852;28;20680;-67
2022/10/13 03:01:44;;;;;;;43.47;23.17;;;;;;;;;;5109725;28;20275;-67
2022/10/13 03:04:11;;;;;;;38.67;21.43;;;;;;;;;;5111529;28;20375;-67
2022/10/13 03:06:38;;;;;;;38.00;21.87;;;;;;;;;;5112818;28;20176;-67
2022/10/13 03:09:06;;;;;;;37.70;21.97;;;;;;;;;;5110536;28;20199;-67
2022/10/13 03:11:34;;;;;;;35.93;20.30;;;;;;;;;;5092939;28;20205;-67
2022/10/13 03:14:00;;;;;;;33.43;20.47;;;;;;;;;;5109676;28;20663;-67
2022/10/13 03:16:27;;;;;;;37.27;20.17;;;;;;;;;;5111588;28;20276;-67
2022/10/13 03:18:53;;;;;;;35.27;21.90;;;;;;;;;;5111259;28;20644;-67
2022/10/13 03:21:20;;;;;;;39.10;20.77;;;;;;;;;;5111955;28;20310;-67
2022/10/13 03:23:46;;;;;;;42.47;21.90;;;;;;;;;;5106553;28;20675;-67
2022/10/13 03:26:14;;;;;;;35.33;20.90;;;;;;;;;;5110514;28;20720;-67
2022/10/13 03:28:40;;;;;;;35.67;21.23;;;;;;;;;;5099562;28;20303;-65
2022/10/13 03:31:08;;;;;;;36.00;20.73;;;;;;;;;;5090564;28;20196;-66
2022/10/13 03:33:35;;;;;;;36.27;20.40;;;;;;;;;;5093189;28;20346;-67
2022/10/13 03:36:02;;;;;;;36.33;21.47;;;;;;;;;;5094747;28;20198;-68
2022/10/13 03:38:29;;;;;;;31.80;20.40;;;;;;;;;;5090270;28;20633;-68
2022/10/13 03:40:55;;;;;;;31.97;20.07;;;;;;;;;;5101972;28;21426;-68
2022/10/13 03:43:24;;;;;;;33.63;19.90;;;;;;;;;;5099967;28;20203;-67
2022/10/13 03:45:56;;;;;;;38.23;20.37;;;;;;;;;;5092663;28;20196;-66
2022/10/13 03:48:23;;;;;;;35.20;20.23;;;;;;;;;;5089956;28;20227;-66
2022/10/13 03:50:50;;;;;;;37.83;20.30;;;;;;;;;;5092622;28;20277;-66
2022/10/13 03:53:17;;;;;;;32.77;19.33;;;;;;;;;;5094611;28;20195;-67
2022/10/13 03:55:47;;;;;;;33.73;19.80;;;;;;;;;;5088681;28;20569;-67
2022/10/13 03:58:14;;;;;;;32.83;19.43;;;;;;;;;;5091682;28;20185;-67
2022/10/13 04:00:44;;;;;;;35.83;20.87;;;;;;;;;;5091023;28;20571;-67
2022/10/13 04:03:12;;;;;;;33.37;20.70;;;;;;;;;;5096914;28;20789;-67
2022/10/13 04:05:38;;;;;;;35.00;20.43;;;;;;;;;;5089664;28;20201;-67
2022/10/13 04:08:05;;;;;;;35.37;20.60;;;;;;;;;;5096347;28;20224;-67
2022/10/13 04:10:31;;;;;;;34.23;19.77;;;;;;;;;;5090221;28;20193;-67
2022/10/13 04:12:58;;;;;;;33.60;20.67;;;;;;;;;;5088288;28;20192;-65
2022/10/13 04:15:25;;;;;;;36.23;20.60;;;;;;;;;;5095801;28;20193;-68
2022/10/13 04:17:52;;;;;;;33.83;20.20;;;;;;;;;;5097954;28;20660;-68
2022/10/13 04:20:18;;;;;;;35.37;21.23;;;;;;;;;;5083099;28;20189;-66
2022/10/13 04:22:45;;;;;;;37.43;20.00;;;;;;;;;;5099448;28;20319;-66
2022/10/13 04:25:11;;;;;;;31.47;19.43;;;;;;;;;;5086453;28;20181;-67
2022/10/13 04:27:38;;;;;;;31.87;19.10;;;;;;;;;;5090340;28;20224;-67
2022/10/13 04:30:05;;;;;;;30.23;18.17;;;;;;;;;;5092194;28;20279;-67
2022/10/13 04:32:31;;;;;;;31.53;19.37;;;;;;;;;;5087435;28;20320;-66
2022/10/13 04:35:01;;;;;;;30.80;19.40;;;;;;;;;;5090435;28;20287;-66
2022/10/13 04:37:27;;;;;;;32.53;19.63;;;;;;;;;;5096465;28;20611;-68
2022/10/13 04:39:54;;;;;;;33.77;18.13;;;;;;;;;;5094212;28;20172;-66
2022/10/13 04:42:20;;;;;;;30.00;18.03;;;;;;;;;;5101305;28;20214;-66
2022/10/13 04:44:48;;;;;;;32.30;18.07;;;;;;;;;;5092461;28;20188;-66
2022/10/13 04:47:19;;;;;;;29.93;19.13;;;;;;;;;;5105804;28;20197;-66
2022/10/13 04:49:46;;;;;;;28.50;17.37;;;;;;;;;;5091398;28;20221;-66
2022/10/13 04:52:13;;;;;;;34.80;17.70;;;;;;;;;;5091842;28;20666;-66
2022/10/13 04:54:41;;;;;;;28.37;18.17;;;;;;;;;;5091945;28;20254;-66
2022/10/13 04:57:07;;;;;;;31.37;17.50;;;;;;;;;;5093141;28;20189;-66
2022/10/13 04:59:34;;;;;;;28.00;17.07;;;;;;;;;;5085249;28;20718;-66
2022/10/13 05:02:02;;;;;;;29.50;16.87;;;;;;;;;;5098274;28;20369;-66
2022/10/13 05:04:28;;;;;;;26.83;16.60;;;;;;;;;;5106662;27;20200;-66
2022/10/13 05:06:56;;;;;;;30.20;17.43;;;;;;;;;;5097239;28;20675;-66
2022/10/13 05:09:43;;;;;;;28.80;16.23;;;;;;;;;;5089820;28;20275;-66
2022/10/13 05:12:11;;;;;;;30.50;17.33;;;;;;;;;;5110706;28;20192;-66
2022/10/13 05:14:39;;;;;;;26.00;16.87;;;;;;;;;;5092705;28;20193;-66
2022/10/13 05:17:06;;;;;;;26.30;15.97;;;;;;;;;;5092300;28;20276;-66
2022/10/13 05:19:32;;;;;;;25.73;15.43;;;;;;;;;;5092293;28;20268;-66
2022/10/13 05:21:59;;;;;;;27.40;15.90;;;;;;;;;;5087061;28;20275;-68
2022/10/13 05:24:35;;;;;;;26.73;14.87;;;;;;;;;;5088229;28;20197;-67
2022/10/13 05:27:07;;;;;;;29.70;15.53;;;;;;;;;;5086526;28;20327;-68
2022/10/13 05:29:37;;;;;;;25.53;15.20;;;;;;;;;;5099168;28;20188;-68
2022/10/13 05:32:03;;;;;;;29.90;17.53;;;;;;;;;;5083004;28;20249;-67
2022/10/13 05:34:31;;;;;;;26.07;14.10;;;;;;;;;;5105303;28;20195;-67
2022/10/13 05:36:58;;;;;;;27.40;16.23;;;;;;;;;;5109237;28;20269;-66
2022/10/13 05:39:25;;;;;;;27.33;15.40;;;;;;;;;;5107684;28;20193;-66
2022/10/13 05:41:52;;;;;;;26.13;16.13;;;;;;;;;;5110684;28;20196;-66
2022/10/13 05:44:24;;;;;;;30.00;16.40;;;;;;;;;;5110701;28;20197;-66
2022/10/13 05:46:53;;;;;;;26.20;15.20;;;;;;;;;;5110726;28;20200;-66
2022/10/13 05:49:20;;;;;;;26.37;15.40;;;;;;;;;;5110588;28;20235;-66
2022/10/13 05:51:48;;;;;;;25.40;14.57;;;;;;;;;;5110206;28;20235;-67
2022/10/13 05:54:16;;;;;;;27.00;14.63;;;;;;;;;;5103040;28;20250;-67
2022/10/13 05:56:47;;;;;;;25.73;14.93;;;;;;;;;;5100788;28;20301;-68
2022/10/13 05:59:14;;;;;;;25.53;14.63;;;;;;;;;;5085108;28;20192;-67
2022/10/13 06:01:45;;;;;;;26.90;15.13;;;;;;;;;;5096104;28;20288;-67
2022/10/13 06:04:13;;;;;;;23.80;14.47;;;;;;;;;;5088083;28;20200;-67
2022/10/13 06:06:40;;;;;;;25.27;13.87;;;;;;;;;;5088352;28;20204;-66
2022/10/13 06:09:06;;;;;;;18.80;12.30;;;;;;;;;;5090802;28;20313;-67
2022/10/13 06:11:33;;;;;;;20.90;13.20;;;;;;;;;;5087910;28;20662;-66
2022/10/13 06:14:00;;;;;;;18.33;10.73;;;;;;;;;;5093435;28;20204;-65
2022/10/13 06:16:26;;;;;;;17.87;10.10;;;;;;;;;;5086783;28;20315;-67
2022/10/13 06:18:55;;;;;;;16.77;8.50;;;;;;;;;;5094606;28;20192;-66
2022/10/13 06:21:22;;;;;;;18.63;11.17;;;;;;;;;;5093172;28;20315;-66
2022/10/13 06:23:48;;;;;;;21.87;9.60;;;;;;;;;;5092399;28;20205;-68
2022/10/13 06:26:18;;;;;;;18.13;10.07;;;;;;;;;;5088068;28;20284;-67
2022/10/13 06:28:45;;;;;;;20.63;9.20;;;;;;;;;;5093566;28;20208;-65
2022/10/13 06:31:17;;;;;;;21.13;10.33;;;;;;;;;;5090731;28;20210;-66
2022/10/13 06:33:44;;;;;;;18.10;10.00;;;;;;;;;;5094856;28;20737;-65
2022/10/13 06:36:10;;;;;;;18.37;10.17;;;;;;;;;;5092659;28;20198;-65
2022/10/13 06:38:37;;;;;;;20.03;9.27;;;;;;;;;;5103457;28;20277;-66
2022/10/13 06:41:04;;;;;;;18.30;9.17;;;;;;;;;;5101284;28;20195;-66
2022/10/13 06:43:34;;;;;;;20.20;8.40;;;;;;;;;;5102104;28;20201;-66
2022/10/13 06:46:09;;;;;;;15.33;8.33;;;;;;;;;;5085096;28;20208;-67
2022/10/13 06:48:35;;;;;;;16.80;8.37;;;;;;;;;;5103100;28;20219;-68
2022/10/13 06:51:02;;;;;;;14.67;6.40;;;;;;;;;;5102035;28;20304;-68
2022/10/13 06:53:29;;;;;;;15.33;6.20;;;;;;;;;;5101879;28;20537;-67
2022/10/13 06:55:58;;;;;;;14.53;6.30;;;;;;;;;;5102435;28;20202;-67
2022/10/13 06:58:25;;;;;;;13.63;6.30;;;;;;;;;;5103313;28;20601;-67
2022/10/13 07:00:52;;;;;;;14.00;5.97;;;;;;;;;;5101648;28;20244;-66
2022/10/13 07:03:19;;;;;;;7.63;4.90;;;;;;;;;;5105128;27;20200;-69
2022/10/13 07:05:46;;;;;;;11.47;4.47;;;;;;;;;;5087245;28;20465;-68
2022/10/13 07:08:13;;;;;;;11.50;4.80;;;;;;;;;;5106640;27;20228;-67
2022/10/13 07:10:39;;;;;;;10.03;4.50;;;;;;;;;;5103618;27;20197;-67
2022/10/13 07:13:06;;;;;;;10.47;4.47;;;;;;;;;;5088092;28;20203;-67
2022/10/13 07:15:36;;;;;;;10.37;4.00;;;;;;;;;;5101903;28;20193;-67
2022/10/13 07:18:02;;;;;;;9.87;4.23;;;;;;;;;;5107078;28;20197;-66
2022/10/13 07:20:30;;;;;;;9.93;4.57;;;;;;;;;;5106553;28;20580;-68
2022/10/13 07:22:57;;;;;;;11.33;4.33;;;;;;;;;;5107560;28;20224;-66
2022/10/13 07:25:24;;;;;;;9.53;4.93;;;;;;;;;;5106440;28;20216;-66
2022/10/13 07:27:51;;;;;;;11.30;4.93;;;;;;;;;;5106181;27;20231;-66
2022/10/13 07:30:17;;;;;;;8.27;4.60;;;;;;;;;;5106284;28;20880;-68
2022/10/13 07:32:46;;;;;;;9.70;4.73;;;;;;;;;;5102815;28;20827;-66
2022/10/13 07:35:13;;;;;;;10.20;4.67;;;;;;;;;;5106121;28;20644;-67
2022/10/13 07:37:39;;;;;;;11.33;4.73;;;;;;;;;;5105928;28;20240;-67
2022/10/13 07:40:06;;;;;;;10.47;4.57;;;;;;;;;;5105126;28;20224;-67
2022/10/13 07:42:33;;;;;;;18.87;5.57;;;;;;;;;;5103553;28;20271;-69
2022/10/13 07:44:59;;;;;;;11.53;4.90;;;;;;;;;;5106439;28;20239;-67
2022/10/13 07:47:27;;;;;;;12.77;5.60;;;;;;;;;;5105755;28;20233;-67
2022/10/13 07:49:54;;;;;;;13.00;4.90;;;;;;;;;;5105398;28;20259;-67
2022/10/13 07:52:21;;;;;;;10.27;5.03;;;;;;;;;;5105114;28;20197;-66
2022/10/13 07:54:48;;;;;;;11.73;5.37;;;;;;;;;;5104889;28;20199;-68
2022/10/13 07:57:15;;;;;;;12.33;5.03;;;;;;;;;;5105683;28;20200;-67
2022/10/13 07:59:42;;;;;;;10.30;5.27;;;;;;;;;;5104388;28;20253;-67
2022/10/13 08:02:11;;;;;;;9.70;5.73;;;;;;;;;;5102836;28;20670;-67
2022/10/13 08:04:38;;;;;;;12.83;5.33;;;;;;;;;;5103705;28;20177;-66
2022/10/13 08:07:04;;;;;;;14.20;4.63;;;;;;;;;;5105080;28;20185;-68
2022/10/13 08:09:31;;;;;;;9.93;4.30;;;;;;;;;;5086831;28;20208;-67
2022/10/13 08:11:59;;;;;;;8.70;4.20;;;;;;;;;;5103761;28;20185;-68
2022/10/13 08:14:27;;;;;;;9.43;3.80;;;;;;;;;;5103586;28;20284;-69
2022/10/13 08:16:54;;;;;;;8.27;3.90;;;;;;;;;;5104149;28;20543;-71
2022/10/13 08:19:21;;;;;;;9.63;4.07;;;;;;;;;;5104992;28;20197;-68
2022/10/13 08:21:48;;;;;;;10.87;3.43;;;;;;;;;;5104253;28;21030;-68
2022/10/13 08:24:24;;;;;;;10.00;3.60;;;;;;;;;;5105334;28;20200;-67
2022/10/13 08:26:51;;;;;;;9.33;3.33;;;;;;;;;;5105078;28;20284;-69
2022/10/13 08:29:18;;;;;;;9.57;3.47;;;;;;;;;;5104991;28;20208;-68
2022/10/13 08:31:48;;;;;;;7.40;3.57;;;;;;;;;;5104048;28;20231;-68
2022/10/13 08:34:21;;;;;;;7.50;3.77;;;;;;;;;;5104615;28;20543;-67
2022/10/13 08:36:51;;;;;;;14.30;3.73;;;;;;;;;;5104179;28;20324;-67
2022/10/13 08:39:18;;;;;;;8.97;3.60;;;;;;;;;;5102664;28;20192;-67
2022/10/13 08:41:45;;;;;;;10.93;3.80;;;;;;;;;;5083626;28;20201;-68
2022/10/13 08:44:19;;;;;;;11.07;4.43;;;;;;;;;;5084835;28;20192;-67
2022/10/13 08:47:25;;;;;;;12.87;3.90;;;;;;;;;;5100868;28;20311;-65
2022/10/13 08:49:52;;;;;;;11.30;4.10;;;;;;;;;;5087564;28;20217;-65
2022/10/13 08:52:26;;;;;;;11.03;3.90;;;;;;;;;;5086079;28;20207;-66
2022/10/13 08:54:53;;;;;;;11.10;3.50;;;;;;;;;;5095790;28;20204;-66
2022/10/13 08:57:21;;;;;;;9.03;3.90;;;;;;;;;;5089615;28;20280;-67
2022/10/13 08:59:49;;;;;;;10.77;3.67;;;;;;;;;;5089221;28;20186;-66
2022/10/13 09:02:22;;;;;;;7.83;3.20;;;;;;;;;;5101927;28;20212;-68
2022/10/13 09:04:49;;;;;;;11.90;3.80;;;;;;;;;;5092410;28;20282;-68
2022/10/13 09:07:26;;;;;;;8.43;3.47;;;;;;;;;;5095628;28;20189;-69
2022/10/13 09:09:53;;;;;;;9.10;3.40;;;;;;;;;;5083288;28;20243;-68
2022/10/13 09:12:23;;;;;;;8.53;3.60;;;;;;;;;;5082845;28;20240;-66
2022/10/13 09:14:58;;;;;;;6.70;3.13;;;;;;;;;;5089577;28;20223;-67
2022/10/13 09:17:27;;;;;;;8.70;3.40;;;;;;;;;;5084446;28;20192;-68
2022/10/13 09:19:57;;;;;;;6.03;3.17;;;;;;;;;;5088380;28;21091;-68
2022/10/13 09:22:26;;;;;;;11.20;3.50;;;;;;;;;;5096520;28;20235;-68
2022/10/13 09:25:05;;;;;;;9.37;2.93;;;;;;;;;;5093844;28;20591;-66
2022/10/13 09:27:42;;;;;;;10.33;3.33;;;;;;;;;;5072680;28;20742;-67
2022/10/13 09:30:25;;;;;;;7.83;3.27;;;;;;;;;;5086840;28;20212;-66
2022/10/13 09:33:10;;;;;;;6.87;3.30;;;;;;;;;;5088040;28;20207;-68
2022/10/13 09:35:44;;;;;;;10.03;3.40;;;;;;;;;;5097039;28;20188;-66
2022/10/13 09:38:18;;;;;;;9.00;3.63;;;;;;;;;;5101848;28;20629;-67
2022/10/13 09:40:58;;;;;;;11.57;3.63;;;;;;;;;;5100296;28;20257;-65
2022/10/13 09:43:30;;;;;;;11.93;3.60;;;;;;;;;;5101997;28;20209;-67
2022/10/13 09:45:58;;;;;;;9.37;3.60;;;;;;;;;;5102852;28;20184;-70
2022/10/13 09:48:26;;;;;;;11.27;3.70;;;;;;;;;;5101647;28;20851;-69
2022/10/13 09:50:54;;;;;;;7.13;3.33;;;;;;;;;;5101905;28;20187;-69
2022/10/13 09:53:33;;;;;;;9.13;3.27;;;;;;;;;;5100258;28;20193;-68
2022/10/13 09:56:06;;;;;;;8.90;3.30;;;;;;;;;;5083843;28;20214;-67
2022/10/13 09:58:33;;;;;;;8.73;3.97;;;;;;;;;;5101209;28;20184;-72
2022/10/13 10:01:00;;;;;;;12.67;3.60;;;;;;;;;;5099392;28;20184;-69
2022/10/13 10:03:34;;;;;;;8.50;3.33;;;;;;;;;;5100959;28;20590;-68
2022/10/13 10:06:10;;;;;;;10.83;4.10;;;;;;;;;;5100507;28;20246;-69
2022/10/13 10:08:45;;;;;;;12.13;4.20;;;;;;;;;;5099611;28;20223;-67
2022/10/13 10:11:32;;;;;;;9.87;3.80;;;;;;;;;;5100211;28;20195;-67
2022/10/13 10:13:59;;;;;;;6.97;3.67;;;;;;;;;;5102529;28;20219;-67
2022/10/13 10:16:33;;;;;;;8.17;3.20;;;;;;;;;;5101415;28;20184;-67
2022/10/13 10:19:12;;;;;;;8.67;3.77;;;;;;;;;;5102423;28;20655;-68
2022/10/13 10:21:46;;;;;;;9.13;4.30;;;;;;;;;;5097770;28;20193;-66
2022/10/13 10:24:26;;;;;;;9.03;4.30;;;;;;;;;;5102205;28;20629;-71
2022/10/13 10:26:56;;;;;;;8.37;3.60;;;;;;;;;;5101886;28;20228;-66
2022/10/13 10:29:27;;;;;;;8.47;3.97;;;;;;;;;;5101643;28;20220;-67
2022/10/13 10:32:01;;;;;;;12.83;3.90;;;;;;;;;;5085703;28;20189;-70
2022/10/13 10:34:55;;;;;;;10.00;3.90;;;;;;;;;;5103140;28;20551;-67
2022/10/13 10:37:34;;;;;;;7.63;4.07;;;;;;;;;;5102142;28;20599;-70
2022/10/13 10:40:03;;;;;;;14.50;4.03;;;;;;;;;;5098617;28;20251;-70
2022/10/13 10:42:31;;;;;;;10.43;3.67;;;;;;;;;;5087593;28;20228;-68
2022/10/13 10:44:59;;;;;;;7.10;3.60;;;;;;;;;;5096687;28;20189;-68
2022/10/13 10:47:27;;;;;;;11.40;3.70;;;;;;;;;;5104034;28;20242;-69
2022/10/13 10:50:04;;;;;;;8.80;3.40;;;;;;;;;;5106406;27;20660;-69
2022/10/13 10:52:42;;;;;;;7.23;3.57;;;;;;;;;;5094595;28;20208;-68
2022/10/13 10:55:13;;;;;;;7.53;3.40;;;;;;;;;;5105181;28;20194;-69
2022/10/13 10:57:48;;;;;;;10.60;3.50;;;;;;;;;;5086934;28;20197;-69
2022/10/13 11:00:16;;;;;;;9.30;3.37;;;;;;;;;;5087891;28;20740;-67
2022/10/13 11:02:50;;;;;;;8.90;3.70;;;;;;;;;;5103703;28;20275;-67
2022/10/13 11:05:16;;;;;;;9.97;4.17;;;;;;;;;;5086404;28;20193;-68
2022/10/13 11:07:44;;;;;;;6.67;3.20;;;;;;;;;;5093247;28;20212;-68
2022/10/13 11:10:15;;;;;;;8.60;3.73;;;;;;;;;;5092079;28;20351;-68
2022/10/13 11:12:44;;;;;;;8.00;3.70;;;;;;;;;;5089626;28;20197;-68
2022/10/13 11:15:12;;;;;;;8.30;3.80;;;;;;;;;;5089051;28;21025;-68
2022/10/13 11:17:39;;;;;;;7.27;3.37;;;;;;;;;;5087419;28;20576;-68
2022/10/13 11:20:32;;;;;;;9.13;3.60;;;;;;;;;;5097961;28;20757;-71
2022/10/13 11:22:59;;;;;;;6.60;3.43;;;;;;;;;;5095010;28;20197;-69
2022/10/13 11:25:34;;;;;;;8.77;3.60;;;;;;;;;;5111851;28;20234;-73
2022/10/13 11:28:19;;;;;;;7.77;3.40;;;;;;;;;;5075092;28;20204;-68
2022/10/13 11:30:49;;;;;;;9.13;3.03;;;;;;;;;;5101139;28;20271;-71
2022/10/13 11:33:35;;;;;;;8.07;3.57;;;;;;;;;;5080151;28;20205;-71
2022/10/13 11:36:20;;;;;;;9.43;3.20;;;;;;;;;;5101106;28;20278;-69
2022/10/13 11:38:50;;;;;;;9.60;3.50;;;;;;;;;;5096393;28;20181;-69
2022/10/13 11:41:21;;;;;;;8.77;3.53;;;;;;;;;;5107111;28;20207;-69
2022/10/13 11:43:50;;;;;;;7.70;3.73;;;;;;;;;;5111196;28;20189;-68
2022/10/13 11:46:26;;;;;;;7.03;3.40;;;;;;;;;;5111494;28;20238;-69
2022/10/13 11:48:52;;;;;;;11.37;4.03;;;;;;;;;;5112783;28;20311;-68
2022/10/13 11:51:38;;;;;;;8.07;3.57;;;;;;;;;;5112916;28;20197;-69
2022/10/13 11:54:13;;;;;;;12.27;4.53;;;;;;;;;;5112997;28;20215;-68
2022/10/13 11:56:47;;;;;;;8.17;3.87;;;;;;;;;;5094560;28;20205;-68
2022/10/13 11:59:33;;;;;;;11.13;3.77;;;;;;;;;;5112451;28;20686;-68
2022/10/13 12:02:07;;;;;;;9.77;3.70;;;;;;;;;;5094632;28;20193;-67
2022/10/13 12:04:33;;;;;;;7.73;3.93;;;;;;;;;;5094438;28;20189;-68
2022/10/13 12:07:01;;;;;;;8.77;3.53;;;;;;;;;;5112104;28;20165;-69
2022/10/13 12:09:28;;;;;;;9.30;3.57;;;;;;;;;;5112618;28;20217;-68
2022/10/13 12:11:59;;;;;;;8.93;3.67;;;;;;;;;;5112298;28;20237;-68
2022/10/13 12:14:36;;;;;;;9.90;3.53;;;;;;;;;;5112124;28;20191;-69
2022/10/13 12:17:16;;;;;;;8.97;3.67;;;;;;;;;;5112351;28;20196;-68
2022/10/13 12:19:49;;;;;;;6.63;3.20;;;;;;;;;;5095144;28;20610;-68
2022/10/13 12:22:15;;;;;;;8.07;3.57;;;;;;;;;;5093729;28;20185;-69
2022/10/13 12:24:48;;;;;;;10.20;3.80;;;;;;;;;;5112026;28;20187;-68
2022/10/13 12:27:17;;;;;;;8.60;4.73;;;;;;;;;;5109088;28;20203;-68
2022/10/13 12:29:44;;;;;;;6.57;3.27;;;;;;;;;;5094032;28;20200;-69
2022/10/13 12:32:17;;;;;;;8.13;3.43;;;;;;;;;;5112082;28;20540;-69
2022/10/13 12:34:43;;;;;;;7.10;3.93;;;;;;;;;;5094499;28;20177;-68
2022/10/13 12:37:19;;;;;;;10.63;3.63;;;;;;;;;;5093666;28;20691;-69
2022/10/13 12:39:46;;;;;;;8.60;3.90;;;;;;;;;;5111426;28;20233;-69
2022/10/13 12:42:14;;;;;;;7.40;3.73;;;;;;;;;;5110620;28;20191;-69
2022/10/13 12:44:40;;;;;;;10.47;3.43;;;;;;;;;;5110475;28;20667;-69
2022/10/13 12:47:09;;;;;;;7.97;3.23;;;;;;;;;;5110227;28;20268;-69
2022/10/13 12:49:35;;;;;;;8.87;3.93;;;;;;;;;;5111030;28;20707;-69
2022/10/13 12:52:08;;;;;;;7.90;3.30;;;;;;;;;;5111250;28;20246;-69
2022/10/13 12:54:37;;;;;;;7.40;3.93;;;;;;;;;;5111778;28;20690;-68
2022/10/13 12:57:19;;;;;;;10.13;3.63;;;;;;;;;;5088288;28;20210;-68
2022/10/13 12:59:46;;;;;;;11.27;3.43;;;;;;;;;;5090468;28;20591;-68
2022/10/13 13:02:28;;;;;;;6.03;2.97;;;;;;;;;;5091322;28;20239;-68
2022/10/13 13:04:54;;;;;;;8.03;3.43;;;;;;;;;;5091137;28;20181;-68
2022/10/13 13:07:21;;;;;;;8.07;3.37;;;;;;;;;;5090842;28;20188;-68
2022/10/13 13:10:06;;;;;;;5.67;3.03;;;;;;;;;;5072687;28;20220;-68
2022/10/13 13:12:33;;;;;;;10.30;3.50;;;;;;;;;;5090984;28;20664;-68
2022/10/13 13:15:18;;;;;;;6.93;3.40;;;;;;;;;;5090693;28;20283;-68
2022/10/13 13:17:45;;;;;;;6.90;3.33;;;;;;;;;;5090661;28;20196;-68
2022/10/13 13:20:25;;;;;;;8.20;3.17;;;;;;;;;;5074829;28;20193;-68
2022/10/13 13:22:52;;;;;;;9.83;3.27;;;;;;;;;;5090758;28;20215;-68
2022/10/13 13:25:19;;;;;;;7.17;3.73;;;;;;;;;;5072858;28;20193;-68
2022/10/13 13:27:46;;;;;;;7.47;2.97;;;;;;;;;;5072498;28;20641;-68
2022/10/13 13:30:15;;;;;;;7.33;3.20;;;;;;;;;;5091267;28;20213;-68
2022/10/13 13:32:42;;;;;;;9.73;3.80;;;;;;;;;;5090356;28;20185;-68
2022/10/13 13:35:09;;;;;;;10.77;3.30;;;;;;;;;;5090386;28;20537;-68
2022/10/13 13:37:36;;;;;;;9.97;3.70;;;;;;;;;;5090571;28;20735;-68
2022/10/13 13:40:03;;;;;;;7.63;3.50;;;;;;;;;;5100510;28;20184;-68
2022/10/13 13:42:30;;;;;;;10.67;3.57;;;;;;;;;;5111136;28;20188;-68
2022/10/13 13:44:57;;;;;;;8.50;4.00;;;;;;;;;;5077465;28;20185;-68
2022/10/13 13:47:24;;;;;;;6.43;3.53;;;;;;;;;;5073384;28;20201;-68
2022/10/13 13:49:52;;;;;;;9.27;3.40;;;;;;;;;;5091454;28;20639;-68
2022/10/13 13:52:20;;;;;;;8.83;3.43;;;;;;;;;;5081482;28;20268;-67
2022/10/13 13:54:47;;;;;;;8.13;3.50;;;;;;;;;;5091662;28;20193;-68
2022/10/13 13:57:15;;;;;;;7.87;3.37;;;;;;;;;;5090928;28;20193;-68
2022/10/13 13:59:42;;;;;;;8.50;3.53;;;;;;;;;;5081590;28;20193;-68
2022/10/13 14:02:11;;;;;;;8.00;3.57;;;;;;;;;;5096807;28;20267;-68
2022/10/13 14:04:38;;;;;;;13.83;3.70;;;;;;;;;;5091941;28;20186;-68
2022/10/13 14:07:05;;;;;;;7.73;3.47;;;;;;;;;;5091826;28;20232;-68
2022/10/13 14:09:31;;;;;;;12.37;3.97;;;;;;;;;;5090721;28;20194;-68
2022/10/13 14:11:58;;;;;;;12.27;3.97;;;;;;;;;;5091110;28;20202;-68
2022/10/13 14:14:25;;;;;;;14.77;6.17;;;;;;;;;;5090972;28;20765;-68
2022/10/13 14:16:51;;;;;;;10.60;5.67;;;;;;;;;;5090429;28;20514;-68
2022/10/13 14:19:18;;;;;;;11.97;5.07;;;;;;;;;;5091326;28;20186;-67
2022/10/13 14:21:45;;;;;;;11.60;4.47;;;;;;;;;;5091756;28;20186;-68
2022/10/13 14:24:16;;;;;;;7.53;4.57;;;;;;;;;;5091469;28;20280;-68
2022/10/13 14:26:43;;;;;;;7.13;3.53;;;;;;;;;;5093432;28;20210;-68
2022/10/13 14:29:10;;;;;;;9.17;4.13;;;;;;;;;;5080950;28;20189;-68
2022/10/13 14:31:37;;;;;;;13.10;4.20;;;;;;;;;;5090708;28;20243;-67
2022/10/13 14:34:04;;;;;;;13.70;4.80;;;;;;;;;;5090740;28;20209;-67
2022/10/13 14:36:31;;;;;;;13.63;4.80;;;;;;;;;;5090574;28;20695;-68
2022/10/13 14:38:58;;;;;;;11.27;4.50;;;;;;;;;;5081455;28;20196;-67
2022/10/13 14:41:25;;;;;;;9.93;4.30;;;;;;;;;;5096697;28;20308;-67